createdAt,value
2018-12-19T00:00:34.111Z,0.00
2018-12-19T00:01:34.768Z,0.00
2018-12-19T00:02:37.517Z,0.00
2018-12-19T00:03:38.142Z,0.00
2018-12-19T00:04:39.888Z,0.00
2018-12-19T00:05:40.527Z,0.00
2018-12-19T00:06:41.217Z,0.00
2018-12-19T00:07:41.884Z,0.00
2018-12-19T00:08:42.570Z,0.00
2018-12-19T00:09:43.202Z,0.00
2018-12-19T00:10:43.893Z,0.00
2018-12-19T00:11:44.540Z,0.00
2018-12-19T00:12:46.276Z,0.00
2018-12-19T00:13:46.907Z,0.00
2018-12-19T00:14:47.615Z,0.00
2018-12-19T00:15:48.256Z,0.00
2018-12-19T00:16:48.954Z,0.00
2018-12-19T00:17:49.602Z,0.00
2018-12-19T00:18:50.294Z,0.00
2018-12-19T00:19:50.941Z,0.00
2018-12-19T00:20:52.708Z,0.00
2018-12-19T00:21:53.351Z,0.00
2018-12-19T00:22:54.003Z,0.00
2018-12-19T00:23:54.665Z,0.00
2018-12-19T00:24:55.360Z,0.00
2018-12-19T00:25:56.009Z,0.00
2018-12-19T00:26:56.696Z,0.00
2018-12-19T00:27:59.320Z,0.00
2018-12-19T00:29:02.063Z,0.00
2018-12-19T00:30:02.688Z,0.00
2018-12-19T00:31:10.365Z,0.00
2018-12-19T00:32:11.535Z,0.00
2018-12-19T00:33:12.197Z,0.00
2018-12-19T00:34:12.870Z,0.00
2018-12-19T00:35:22.373Z,0.00
2018-12-19T00:36:23.078Z,0.00
2018-12-19T00:37:30.359Z,0.00
2018-12-19T00:38:31.045Z,0.00
2018-12-19T00:39:32.735Z,0.00
2018-12-19T00:40:33.403Z,0.00
2018-12-19T00:41:34.085Z,0.00
2018-12-19T00:42:34.689Z,0.00
2018-12-19T00:43:35.409Z,0.00
2018-12-19T00:44:36.122Z,0.00
2018-12-19T00:45:38.829Z,0.00
2018-12-19T00:46:39.485Z,0.00
2018-12-19T00:47:40.134Z,0.00
2018-12-19T00:48:40.835Z,0.00
2018-12-19T00:49:42.514Z,0.00
2018-12-19T00:50:43.171Z,0.00
2018-12-19T00:51:50.316Z,0.00
2018-12-19T00:52:50.985Z,0.00
2018-12-19T00:53:53.709Z,0.00
2018-12-19T00:54:54.363Z,0.00
2018-12-19T00:56:02.829Z,0.00
2018-12-19T00:57:03.519Z,0.00
2018-12-19T00:58:04.158Z,0.00
2018-12-19T00:59:04.838Z,0.00
2018-12-19T01:00:06.560Z,0.00
2018-12-19T01:01:07.266Z,0.00
2018-12-19T01:02:22.880Z,0.00
2018-12-19T01:03:23.499Z,0.00
2018-12-19T01:04:25.223Z,0.00
2018-12-19T01:05:25.888Z,0.00
2018-12-19T01:06:33.399Z,0.00
2018-12-19T01:07:34.090Z,0.00
2018-12-19T01:08:35.801Z,0.00
2018-12-19T01:09:36.455Z,0.00
2018-12-19T01:10:37.575Z,0.00
2018-12-19T01:11:38.210Z,0.00
2018-12-19T01:12:39.915Z,0.00
2018-12-19T01:13:40.584Z,0.00
2018-12-19T01:14:41.243Z,0.00
2018-12-19T01:15:41.900Z,0.00
2018-12-19T01:16:43.658Z,0.00
2018-12-19T01:17:44.266Z,0.00
2018-12-19T01:18:46.002Z,0.00
2018-12-19T01:19:46.641Z,0.00
2018-12-19T01:20:47.321Z,0.00
2018-12-19T01:21:48.019Z,0.00
2018-12-19T01:22:48.673Z,0.00
2018-12-19T01:23:49.333Z,0.00
2018-12-19T01:24:57.900Z,0.00
2018-12-19T01:25:58.634Z,0.00
2018-12-19T01:27:01.281Z,0.00
2018-12-19T01:28:01.935Z,0.00
2018-12-19T01:29:02.621Z,0.00
2018-12-19T01:30:03.317Z,0.00
2018-12-19T01:31:29.882Z,0.00
2018-12-19T01:32:30.540Z,0.00
2018-12-19T01:34:42.541Z,0.00
2018-12-19T01:35:44.242Z,0.00
2018-12-19T01:36:44.933Z,0.00
2018-12-19T01:37:53.410Z,0.00
2018-12-19T01:38:54.041Z,0.00
2018-12-19T01:39:54.708Z,0.00
2018-12-19T01:40:55.375Z,0.00
2018-12-19T01:42:03.860Z,0.00
2018-12-19T01:43:04.576Z,0.00
2018-12-19T01:44:06.259Z,0.00
2018-12-19T01:45:06.882Z,0.00
2018-12-19T01:46:07.558Z,0.00
2018-12-19T01:47:08.202Z,0.00
2018-12-19T01:48:08.901Z,0.00
2018-12-19T01:49:09.573Z,0.00
2018-12-19T01:50:25.959Z,0.00
2018-12-19T01:51:26.629Z,0.00
2018-12-19T01:52:35.361Z,0.00
2018-12-19T01:53:36.040Z,0.00
2018-12-19T01:54:37.739Z,0.00
2018-12-19T01:55:38.379Z,0.00
2018-12-19T01:56:39.051Z,0.00
2018-12-19T01:57:39.722Z,0.00
2018-12-19T01:58:48.428Z,0.00
2018-12-19T01:59:49.033Z,0.00
2018-12-19T02:00:50.748Z,0.00
2018-12-19T02:01:51.424Z,0.00
2018-12-19T02:02:52.105Z,0.00
2018-12-19T02:03:52.760Z,0.00
2018-12-19T02:04:54.512Z,0.00
2018-12-19T02:05:55.140Z,0.00
2018-12-19T02:06:56.841Z,0.00
2018-12-19T02:07:57.498Z,0.00
2018-12-19T02:08:59.234Z,0.00
2018-12-19T02:09:59.892Z,0.00
2018-12-19T02:11:01.581Z,0.00
2018-12-19T02:12:02.278Z,0.00
2018-12-19T02:13:02.916Z,0.00
2018-12-19T02:14:03.624Z,0.00
2018-12-19T02:15:05.211Z,0.00
2018-12-19T02:16:05.837Z,0.00
2018-12-19T02:17:08.573Z,0.00
2018-12-19T02:18:09.269Z,0.00
2018-12-19T02:19:18.830Z,0.00
2018-12-19T02:20:19.472Z,0.00
2018-12-19T02:21:21.214Z,0.00
2018-12-19T02:22:21.871Z,0.00
2018-12-19T02:23:22.536Z,0.00
2018-12-19T02:24:23.221Z,0.00
2018-12-19T02:25:44.861Z,0.00
2018-12-19T02:26:45.504Z,0.00
2018-12-19T02:27:46.223Z,0.00
2018-12-19T02:28:46.938Z,0.00
2018-12-19T02:29:55.339Z,0.00
2018-12-19T02:30:56.044Z,0.00
2018-12-19T02:31:58.740Z,0.00
2018-12-19T02:32:59.613Z,0.00
2018-12-19T02:34:01.312Z,0.00
2018-12-19T02:35:01.991Z,0.00
2018-12-19T02:36:04.718Z,0.00
2018-12-19T02:37:05.398Z,0.00
2018-12-19T02:38:14.855Z,0.00
2018-12-19T02:39:15.515Z,0.00
2018-12-19T02:40:16.218Z,0.00
2018-12-19T02:41:16.876Z,0.00
2018-12-19T02:42:17.591Z,0.00
2018-12-19T02:43:18.246Z,0.00
2018-12-19T02:44:42.947Z,0.00
2018-12-19T02:45:43.507Z,0.00
2018-12-19T02:46:44.204Z,0.00
2018-12-19T02:47:44.891Z,0.00
2018-12-19T02:48:52.456Z,0.00
2018-12-19T02:49:53.073Z,0.00
2018-12-19T02:50:53.745Z,0.00
2018-12-19T02:51:54.385Z,0.00
2018-12-19T02:52:55.085Z,0.00
2018-12-19T02:53:55.726Z,0.00
2018-12-19T02:55:04.420Z,0.00
2018-12-19T02:56:05.077Z,0.00
2018-12-19T02:57:12.427Z,0.00
2018-12-19T02:58:13.053Z,0.00
2018-12-19T02:59:15.798Z,0.00
2018-12-19T03:00:16.480Z,0.00
2018-12-19T03:01:17.193Z,0.00
2018-12-19T03:02:17.803Z,0.00
2018-12-19T03:03:18.504Z,0.00
2018-12-19T03:04:19.143Z,0.00
2018-12-19T03:05:19.843Z,0.00
2018-12-19T03:06:20.508Z,0.00
2018-12-19T03:07:42.214Z,0.00
2018-12-19T03:08:42.811Z,0.00
2018-12-19T03:09:43.521Z,0.00
2018-12-19T03:10:44.175Z,0.00
2018-12-19T03:11:52.857Z,0.00
2018-12-19T03:12:53.739Z,0.00
2018-12-19T03:13:54.382Z,0.00
2018-12-19T03:14:55.077Z,0.00
2018-12-19T03:16:12.346Z,0.00
2018-12-19T03:17:12.985Z,0.00
2018-12-19T03:18:13.690Z,0.00
2018-12-19T03:19:14.332Z,0.00
2018-12-19T03:20:21.881Z,0.00
2018-12-19T03:21:22.540Z,0.00
2018-12-19T03:22:23.234Z,0.00
2018-12-19T03:23:23.959Z,0.00
2018-12-19T03:24:24.640Z,0.00
2018-12-19T03:25:25.268Z,0.00
2018-12-19T03:26:25.926Z,0.00
2018-12-19T03:27:26.575Z,0.00
2018-12-19T03:28:55.831Z,0.00
2018-12-19T03:29:56.306Z,0.00
2018-12-19T03:31:03.845Z,0.00
2018-12-19T03:32:04.515Z,0.00
2018-12-19T03:33:05.159Z,0.00
2018-12-19T03:34:05.827Z,0.00
2018-12-19T03:35:06.513Z,0.00
2018-12-19T03:36:07.179Z,0.00
2018-12-19T03:37:08.870Z,0.00
2018-12-19T03:38:09.538Z,0.00
2018-12-19T03:39:17.017Z,0.00
2018-12-19T03:40:17.699Z,0.00
2018-12-19T03:41:18.321Z,0.00
2018-12-19T03:42:18.980Z,0.00
2018-12-19T03:43:19.666Z,0.00
2018-12-19T03:44:20.335Z,0.00
2018-12-19T03:45:21.028Z,0.00
2018-12-19T03:46:21.686Z,0.00
2018-12-19T03:47:23.407Z,0.00
2018-12-19T03:48:24.041Z,0.00
2018-12-19T03:49:24.727Z,0.00
2018-12-19T03:50:25.393Z,0.00
2018-12-19T03:51:27.155Z,0.00
2018-12-19T03:52:27.755Z,0.00
2018-12-19T03:53:30.496Z,0.00
2018-12-19T03:54:31.149Z,0.00
2018-12-19T03:55:38.398Z,0.00
2018-12-19T03:56:39.037Z,0.00
2018-12-19T03:57:40.748Z,0.00
2018-12-19T03:58:41.463Z,0.00
2018-12-19T03:59:48.852Z,0.00
2018-12-19T04:00:49.518Z,0.00
2018-12-19T04:01:51.236Z,0.00
2018-12-19T04:02:51.879Z,0.00
2018-12-19T04:03:52.564Z,0.00
2018-12-19T04:04:53.233Z,0.00
2018-12-19T04:05:53.912Z,0.00
2018-12-19T04:06:54.573Z,0.00
2018-12-19T04:07:55.279Z,0.00
2018-12-19T04:08:55.920Z,0.00
2018-12-19T04:09:57.962Z,0.00
2018-12-19T04:10:57.267Z,0.00
2018-12-19T04:11:57.958Z,0.00
2018-12-19T04:12:58.599Z,0.00
2018-12-19T04:13:59.297Z,0.00
2018-12-19T04:14:59.934Z,0.00
2018-12-19T04:16:00.679Z,0.00
2018-12-19T04:17:01.315Z,0.00
2018-12-19T04:18:01.980Z,0.00
2018-12-19T04:19:02.649Z,0.00
2018-12-19T04:20:03.321Z,0.00
2018-12-19T04:21:03.974Z,0.00
2018-12-19T04:22:05.689Z,0.00
2018-12-19T04:23:06.345Z,0.00
2018-12-19T04:24:07.047Z,0.00
2018-12-19T04:25:07.690Z,0.00
2018-12-19T04:26:08.372Z,0.00
2018-12-19T04:27:09.064Z,0.00
2018-12-19T04:28:09.825Z,0.00
2018-12-19T04:29:10.517Z,0.00
2018-12-19T04:30:12.186Z,0.00
2018-12-19T04:31:12.847Z,0.00
2018-12-19T04:32:13.553Z,0.00
2018-12-19T04:33:14.472Z,0.00
2018-12-19T04:34:15.186Z,0.00
2018-12-19T04:35:15.831Z,0.00
2018-12-19T04:36:17.557Z,0.00
2018-12-19T04:37:18.211Z,0.00
2018-12-19T04:38:18.901Z,0.00
2018-12-19T04:39:19.559Z,0.00
2018-12-19T04:40:20.258Z,0.00
2018-12-19T04:41:20.923Z,0.00
2018-12-19T04:42:21.610Z,0.00
2018-12-19T04:43:22.241Z,0.00
2018-12-19T04:44:22.941Z,0.00
2018-12-19T04:45:23.575Z,0.00
2018-12-19T04:46:24.280Z,0.00
2018-12-19T04:47:24.919Z,0.00
2018-12-19T04:48:25.524Z,0.00
2018-12-19T04:49:26.430Z,0.00
2018-12-19T04:50:29.315Z,0.00
2018-12-19T04:51:29.825Z,0.00
2018-12-19T04:52:32.405Z,0.00
2018-12-19T04:53:32.905Z,0.00
2018-12-19T04:54:42.363Z,0.00
2018-12-19T04:55:43.813Z,0.00
2018-12-19T04:56:45.333Z,0.00
2018-12-19T04:57:45.813Z,0.00
2018-12-19T04:58:46.369Z,0.00
2018-12-19T04:59:46.878Z,0.00
2018-12-19T05:00:49.458Z,0.00
2018-12-19T05:01:49.944Z,0.00
2018-12-19T05:02:50.505Z,0.00
2018-12-19T05:03:50.968Z,0.00
2018-12-19T05:04:51.532Z,0.00
2018-12-19T05:05:52.007Z,0.00
2018-12-19T05:06:52.555Z,0.00
2018-12-19T05:07:53.109Z,0.00
2018-12-19T05:08:53.612Z,0.00
2018-12-19T05:09:54.080Z,0.00
2018-12-19T05:10:56.584Z,0.00
2018-12-19T05:11:57.063Z,0.00
2018-12-19T05:12:57.607Z,0.00
2018-12-19T05:13:58.097Z,0.00
2018-12-19T05:14:59.678Z,0.00
2018-12-19T05:16:00.160Z,0.00
2018-12-19T05:17:02.675Z,0.00
2018-12-19T05:18:03.145Z,0.00
2018-12-19T05:19:03.692Z,0.00
2018-12-19T05:20:04.200Z,0.00
2018-12-19T05:21:04.746Z,0.00
2018-12-19T05:22:05.205Z,0.00
2018-12-19T05:23:07.832Z,0.00
2018-12-19T05:24:08.316Z,0.00
2018-12-19T05:25:08.862Z,0.00
2018-12-19T05:26:09.335Z,0.00
2018-12-19T05:27:10.920Z,0.00
2018-12-19T05:28:11.437Z,0.00
2018-12-19T05:29:11.882Z,0.00
2018-12-19T05:30:12.376Z,0.00
2018-12-19T05:31:14.814Z,0.00
2018-12-19T05:32:15.297Z,0.00
2018-12-19T05:33:16.897Z,0.00
2018-12-19T05:34:20.439Z,0.00
2018-12-19T05:35:20.917Z,0.00
2018-12-19T05:36:21.420Z,0.00
2018-12-19T05:37:23.813Z,0.00
2018-12-19T05:38:24.402Z,0.00
2018-12-19T05:39:24.919Z,0.00
2018-12-19T05:40:25.449Z,0.00
2018-12-19T05:41:25.939Z,0.00
2018-12-19T05:42:27.496Z,0.00
2018-12-19T05:43:28.026Z,0.00
2018-12-19T05:44:28.545Z,0.00
2018-12-19T05:45:29.027Z,0.00
2018-12-19T05:46:29.586Z,0.00
2018-12-19T05:47:30.064Z,0.00
2018-12-19T05:48:30.607Z,0.00
2018-12-19T05:49:31.108Z,0.00
2018-12-19T05:50:32.682Z,0.00
2018-12-19T05:51:33.173Z,0.00
2018-12-19T05:52:34.737Z,0.00
2018-12-19T05:53:35.253Z,0.00
2018-12-19T05:54:35.790Z,0.00
2018-12-19T05:55:36.279Z,0.00
2018-12-19T05:56:37.847Z,0.00
2018-12-19T05:57:38.330Z,0.00
2018-12-19T05:58:39.901Z,0.00
2018-12-19T05:59:40.445Z,0.00
2018-12-19T06:00:40.932Z,0.00
2018-12-19T06:01:41.700Z,0.00
2018-12-19T06:02:42.276Z,0.00
2018-12-19T06:03:43.426Z,0.00
2018-12-19T06:04:44.854Z,0.00
2018-12-19T06:05:45.969Z,0.00
2018-12-19T06:06:47.008Z,0.00
2018-12-19T06:07:47.654Z,0.00
2018-12-19T06:08:48.354Z,0.00
2018-12-19T06:09:49.004Z,0.00
2018-12-19T06:10:50.225Z,0.00
2018-12-19T06:11:50.859Z,0.00
2018-12-19T06:12:51.571Z,0.00
2018-12-19T06:13:52.204Z,0.00
2018-12-19T06:14:52.912Z,0.00
2018-12-19T06:15:53.547Z,0.00
2018-12-19T06:16:56.304Z,0.00
2018-12-19T06:17:56.932Z,0.00
2018-12-19T06:18:57.631Z,0.00
2018-12-19T06:19:58.282Z,0.00
2018-12-19T06:20:58.995Z,0.00
2018-12-19T06:21:59.629Z,0.00
2018-12-19T06:23:01.365Z,0.00
2018-12-19T06:24:02.082Z,0.00
2018-12-19T06:25:02.831Z,0.00
2018-12-19T06:26:03.449Z,0.00
2018-12-19T06:27:04.149Z,0.00
2018-12-19T06:28:04.792Z,0.00
2018-12-19T06:29:05.477Z,0.00
2018-12-19T06:30:06.124Z,0.00
2018-12-19T06:31:06.839Z,0.00
2018-12-19T06:32:07.484Z,0.00
2018-12-19T06:33:08.174Z,0.00
2018-12-19T06:34:08.818Z,0.00
2018-12-19T06:35:09.508Z,0.00
2018-12-19T06:36:10.165Z,0.00
2018-12-19T06:37:10.848Z,0.00
2018-12-19T06:38:11.518Z,0.00
2018-12-19T06:39:12.219Z,0.00
2018-12-19T06:40:12.852Z,0.00
2018-12-19T06:41:13.548Z,0.00
2018-12-19T06:42:14.117Z,0.00
2018-12-19T06:43:15.005Z,0.00
2018-12-19T06:44:15.645Z,0.00
2018-12-19T06:45:16.397Z,0.00
2018-12-19T06:46:17.035Z,0.00
2018-12-19T06:47:17.814Z,0.00
2018-12-19T06:48:18.482Z,0.00
2018-12-19T06:49:19.240Z,0.00
2018-12-19T06:50:19.917Z,0.00
2018-12-19T06:51:20.580Z,0.00
2018-12-19T06:52:21.254Z,0.00
2018-12-19T06:53:22.017Z,0.00
2018-12-19T06:54:22.672Z,0.00
2018-12-19T06:55:23.371Z,0.00
2018-12-19T06:56:24.110Z,0.00
2018-12-19T06:57:24.736Z,0.00
2018-12-19T06:58:25.428Z,0.00
2018-12-19T06:59:26.078Z,0.00
2018-12-19T07:00:26.769Z,0.00
2018-12-19T07:01:27.444Z,0.00
2018-12-19T07:02:28.122Z,0.00
2018-12-19T07:03:28.804Z,0.00
2018-12-19T07:04:29.481Z,0.00
2018-12-19T07:05:30.124Z,0.00
2018-12-19T07:06:30.827Z,0.00
2018-12-19T07:07:31.449Z,0.00
2018-12-19T07:08:32.165Z,0.00
2018-12-19T07:09:32.645Z,0.00
2018-12-19T07:10:39.143Z,0.00
2018-12-19T07:11:34.398Z,0.00
2018-12-19T07:12:35.192Z,0.00
2018-12-19T07:13:35.805Z,0.00
2018-12-19T07:14:36.392Z,0.00
2018-12-19T07:15:36.908Z,0.00
2018-12-19T07:16:43.304Z,0.00
2018-12-19T07:17:37.930Z,0.00
2018-12-19T07:18:38.455Z,0.00
2018-12-19T07:19:38.976Z,0.00
2018-12-19T07:20:39.524Z,0.00
2018-12-19T07:21:40.004Z,0.00
2018-12-19T07:22:40.546Z,0.00
2018-12-19T07:23:41.053Z,0.00
2018-12-19T07:24:41.584Z,4.00
2018-12-19T07:25:42.072Z,4.00
2018-12-19T07:26:42.655Z,4.00
2018-12-19T07:27:43.120Z,4.00
2018-12-19T07:28:43.656Z,4.00
2018-12-19T07:29:44.142Z,4.00
2018-12-19T07:30:44.691Z,4.00
2018-12-19T07:31:45.172Z,4.00
2018-12-19T07:32:45.674Z,4.00
2018-12-19T07:33:46.150Z,4.00
2018-12-19T07:34:46.665Z,4.00
2018-12-19T07:35:47.124Z,4.00
2018-12-19T07:36:47.615Z,4.00
2018-12-19T07:37:48.124Z,4.00
2018-12-19T07:38:48.582Z,4.00
2018-12-19T07:39:49.099Z,4.00
2018-12-19T07:40:49.623Z,4.00
2018-12-19T07:41:50.598Z,4.00
2018-12-19T07:42:51.068Z,4.00
2018-12-19T07:43:51.560Z,4.00
2018-12-19T07:44:52.046Z,4.00
2018-12-19T07:45:52.540Z,0.00
2018-12-19T07:46:53.643Z,4.00
2018-12-19T07:47:54.111Z,4.00
2018-12-19T07:48:55.142Z,4.00
2018-12-19T07:49:55.610Z,4.00
2018-12-19T07:50:56.115Z,4.00
2018-12-19T07:51:56.573Z,4.00
2018-12-19T07:52:57.182Z,8.00
2018-12-19T07:53:57.662Z,8.00
2018-12-19T07:54:58.314Z,4.00
2018-12-19T07:55:58.822Z,4.00
2018-12-19T07:56:59.753Z,4.00
2018-12-19T07:58:00.247Z,8.00
2018-12-19T07:59:00.751Z,8.00
2018-12-19T08:00:01.225Z,8.00
2018-12-19T08:01:01.714Z,8.00
2018-12-19T08:02:02.746Z,8.00
2018-12-19T08:03:03.247Z,8.00
2018-12-19T08:04:03.723Z,8.00
2018-12-19T08:05:04.218Z,8.00
2018-12-19T08:06:04.722Z,12.00
2018-12-19T08:07:05.364Z,8.00
2018-12-19T08:08:05.857Z,8.00
2018-12-19T08:09:06.519Z,8.00
2018-12-19T08:10:07.289Z,12.00
2018-12-19T08:11:07.786Z,16.00
2018-12-19T08:12:08.282Z,12.00
2018-12-19T08:13:08.798Z,16.00
2018-12-19T08:14:11.454Z,16.00
2018-12-19T08:15:11.952Z,12.00
2018-12-19T08:16:12.420Z,12.00
2018-12-19T08:17:13.296Z,16.00
2018-12-19T08:18:14.205Z,16.00
2018-12-19T08:19:14.950Z,12.00
2018-12-19T08:20:15.467Z,16.00
2018-12-19T08:21:15.949Z,16.00
2018-12-19T08:22:16.422Z,16.00
2018-12-19T08:23:18.060Z,16.00
2018-12-19T08:24:18.542Z,20.00
2018-12-19T08:25:19.061Z,20.00
2018-12-19T08:26:19.534Z,24.00
2018-12-19T08:27:19.997Z,24.00
2018-12-19T08:28:20.655Z,28.00
2018-12-19T08:29:21.141Z,24.00
2018-12-19T08:30:21.634Z,24.00
2018-12-19T08:31:22.250Z,24.00
2018-12-19T08:32:22.697Z,16.00
2018-12-19T08:33:23.210Z,20.00
2018-12-19T08:34:23.743Z,20.00
2018-12-19T08:35:24.196Z,24.00
2018-12-19T08:36:24.678Z,24.00
2018-12-19T08:37:25.173Z,20.00
2018-12-19T08:38:25.644Z,24.00
2018-12-19T08:39:26.123Z,28.00
2018-12-19T08:40:26.637Z,32.00
2018-12-19T08:41:27.307Z,24.00
2018-12-19T08:42:27.796Z,32.00
2018-12-19T08:43:28.276Z,28.00
2018-12-19T08:44:28.814Z,32.00
2018-12-19T08:45:29.589Z,32.00
2018-12-19T08:46:30.738Z,28.00
2018-12-19T08:47:30.711Z,24.00
2018-12-19T08:48:31.771Z,24.00
2018-12-19T08:49:31.752Z,24.00
2018-12-19T08:50:32.264Z,28.00
2018-12-19T08:51:32.719Z,28.00
2018-12-19T08:52:33.312Z,28.00
2018-12-19T08:53:33.840Z,28.00
2018-12-19T08:54:34.278Z,24.00
2018-12-19T08:55:34.789Z,20.00
2018-12-19T08:56:35.257Z,24.00
2018-12-19T08:57:35.756Z,24.00
2018-12-19T08:58:36.224Z,28.00
2018-12-19T08:59:36.723Z,28.00
2018-12-19T09:00:37.230Z,28.00
2018-12-19T09:01:37.805Z,28.00
2018-12-19T09:02:38.185Z,32.00
2018-12-19T09:03:38.851Z,40.00
2018-12-19T09:04:39.463Z,44.00
2018-12-19T09:05:39.972Z,40.00
2018-12-19T09:06:40.490Z,44.00
2018-12-19T09:07:41.104Z,48.00
2018-12-19T09:08:41.612Z,52.00
2018-12-19T09:09:42.245Z,52.00
2018-12-19T09:10:42.792Z,56.00
2018-12-19T09:11:43.404Z,64.00
2018-12-19T09:12:43.874Z,68.00
2018-12-19T09:13:44.549Z,72.00
2018-12-19T09:14:45.021Z,76.00
2018-12-19T09:15:45.681Z,76.00
2018-12-19T09:16:46.162Z,92.00
2018-12-19T09:17:46.809Z,100.00
2018-12-19T09:18:47.294Z,108.00
2018-12-19T09:19:47.976Z,112.00
2018-12-19T09:20:48.433Z,120.00
2018-12-19T09:21:49.084Z,120.00
2018-12-19T09:22:49.576Z,120.00
2018-12-19T09:23:50.238Z,132.00
2018-12-19T09:24:50.739Z,120.00
2018-12-19T09:25:53.003Z,132.00
2018-12-19T09:26:52.880Z,140.00
2018-12-19T09:27:53.531Z,140.00
2018-12-19T09:28:54.859Z,136.00
2018-12-19T09:29:55.504Z,148.00
2018-12-19T09:30:55.977Z,144.00
2018-12-19T09:31:56.641Z,152.00
2018-12-19T09:32:57.202Z,148.00
2018-12-19T09:33:57.769Z,144.00
2018-12-19T09:34:58.258Z,120.00
2018-12-19T09:35:58.918Z,128.00
2018-12-19T09:36:59.402Z,144.00
2018-12-19T09:38:00.050Z,128.00
2018-12-19T09:39:00.529Z,116.00
2018-12-19T09:40:01.206Z,108.00
2018-12-19T09:41:01.683Z,128.00
2018-12-19T09:42:02.325Z,120.00
2018-12-19T09:43:02.814Z,136.00
2018-12-19T09:44:03.518Z,112.00
2018-12-19T09:45:03.955Z,88.00
2018-12-19T09:46:04.920Z,92.00
2018-12-19T09:47:06.029Z,128.00
2018-12-19T09:48:06.786Z,112.00
2018-12-19T09:49:12.333Z,104.00
2018-12-19T09:50:08.628Z,128.00
2018-12-19T09:51:09.538Z,128.00
2018-12-19T09:52:11.330Z,144.00
2018-12-19T09:53:12.075Z,168.00
2018-12-19T09:54:12.976Z,168.00
2018-12-19T09:55:13.628Z,188.00
2018-12-19T09:56:14.675Z,196.00
2018-12-19T09:57:15.299Z,176.00
2018-12-19T09:58:16.063Z,176.00
2018-12-19T09:59:17.188Z,184.00
2018-12-19T10:00:18.005Z,184.00
2018-12-19T10:01:19.156Z,192.00
2018-12-19T10:02:20.283Z,192.00
2018-12-19T10:03:20.992Z,196.00
2018-12-19T10:04:22.032Z,212.00
2018-12-19T10:05:22.741Z,216.00
2018-12-19T10:06:23.295Z,216.00
2018-12-19T10:07:23.935Z,224.00
2018-12-19T10:08:24.632Z,244.00
2018-12-19T10:09:25.553Z,240.00
2018-12-19T10:10:26.077Z,240.00
2018-12-19T10:11:27.099Z,228.00
2018-12-19T10:12:27.935Z,200.00
2018-12-19T10:13:28.492Z,168.00
2018-12-19T10:14:29.377Z,156.00
2018-12-19T10:15:30.047Z,164.00
2018-12-19T10:16:31.022Z,192.00
2018-12-19T10:17:31.821Z,200.00
2018-12-19T10:18:32.586Z,216.00
2018-12-19T10:19:33.265Z,192.00
2018-12-19T10:20:34.335Z,168.00
2018-12-19T10:21:35.337Z,192.00
2018-12-19T10:22:36.181Z,240.00
2018-12-19T10:23:37.319Z,196.00
2018-12-19T10:24:38.548Z,144.00
2018-12-19T10:25:39.421Z,148.00
2018-12-19T10:26:40.141Z,188.00
2018-12-19T10:27:40.765Z,224.00
2018-12-19T10:28:42.373Z,212.00
2018-12-19T10:29:43.479Z,192.00
2018-12-19T10:30:44.335Z,208.00
2018-12-19T10:31:45.013Z,228.00
2018-12-19T10:32:45.690Z,200.00
2018-12-19T10:33:46.342Z,156.00
2018-12-19T10:34:47.129Z,136.00
2018-12-19T10:35:47.825Z,176.00
2018-12-19T10:36:48.574Z,168.00
2018-12-19T10:37:49.246Z,176.00
2018-12-19T10:38:50.014Z,184.00
2018-12-19T10:39:50.679Z,188.00
2018-12-19T10:40:51.462Z,184.00
2018-12-19T10:41:52.140Z,224.00
2018-12-19T10:42:52.910Z,260.00
2018-12-19T10:43:53.591Z,280.00
2018-12-19T10:44:54.357Z,292.00
2018-12-19T10:45:55.022Z,280.00
2018-12-19T10:46:55.879Z,284.00
2018-12-19T10:47:56.479Z,256.00
2018-12-19T10:48:57.256Z,280.00
2018-12-19T10:49:57.943Z,360.00
2018-12-19T10:50:58.740Z,336.00
2018-12-19T10:51:59.351Z,276.00
2018-12-19T10:53:00.022Z,284.00
2018-12-19T10:54:00.675Z,256.00
2018-12-19T10:55:01.408Z,276.00
2018-12-19T10:56:02.069Z,228.00
2018-12-19T10:57:03.796Z,280.00
2018-12-19T10:58:04.433Z,308.00
2018-12-19T10:59:05.218Z,320.00
2018-12-19T11:00:05.872Z,364.00
2018-12-19T11:01:06.672Z,288.00
2018-12-19T11:02:07.325Z,340.00
2018-12-19T11:03:08.142Z,260.00
2018-12-19T11:04:08.775Z,248.00
2018-12-19T11:05:09.634Z,228.00
2018-12-19T11:06:10.210Z,268.00
2018-12-19T11:07:11.002Z,260.00
2018-12-19T11:08:11.719Z,236.00
2018-12-19T11:09:12.455Z,264.00
2018-12-19T11:10:13.125Z,272.00
2018-12-19T11:11:13.899Z,276.00
2018-12-19T11:12:14.544Z,268.00
2018-12-19T11:13:15.351Z,312.00
2018-12-19T11:14:16.445Z,364.00
2018-12-19T11:15:16.798Z,384.00
2018-12-19T11:16:17.447Z,368.00
2018-12-19T11:17:18.231Z,296.00
2018-12-19T11:18:18.892Z,244.00
2018-12-19T11:19:19.715Z,220.00
2018-12-19T11:20:20.338Z,204.00
2018-12-19T11:21:21.131Z,188.00
2018-12-19T11:22:21.795Z,172.00
2018-12-19T11:23:22.599Z,188.00
2018-12-19T11:24:23.224Z,172.00
2018-12-19T11:25:24.359Z,184.00
2018-12-19T11:26:25.026Z,200.00
2018-12-19T11:27:25.804Z,204.00
2018-12-19T11:28:26.439Z,224.00
2018-12-19T11:29:27.240Z,196.00
2018-12-19T11:30:27.897Z,188.00
2018-12-19T11:31:28.692Z,220.00
2018-12-19T11:32:29.334Z,252.00
2018-12-19T11:33:30.136Z,244.00
2018-12-19T11:34:30.797Z,232.00
2018-12-19T11:35:31.600Z,236.00
2018-12-19T11:36:32.235Z,232.00
2018-12-19T11:37:33.029Z,224.00
2018-12-19T11:38:33.680Z,268.00
2018-12-19T11:39:34.537Z,300.00
2018-12-19T11:40:35.130Z,296.00
2018-12-19T11:41:38.934Z,320.00
2018-12-19T11:42:36.464Z,356.00
2018-12-19T11:43:37.262Z,360.00
2018-12-19T11:44:37.914Z,348.00
2018-12-19T11:45:38.716Z,324.00
2018-12-19T11:46:39.361Z,284.00
2018-12-19T11:47:40.176Z,252.00
2018-12-19T11:48:40.821Z,248.00
2018-12-19T11:49:41.610Z,264.00
2018-12-19T11:50:42.260Z,220.00
2018-12-19T11:51:43.047Z,192.00
2018-12-19T11:52:43.707Z,188.00
2018-12-19T11:53:44.349Z,184.00
2018-12-19T11:54:45.007Z,208.00
2018-12-19T11:55:45.757Z,212.00
2018-12-19T11:56:46.387Z,208.00
2018-12-19T11:57:47.192Z,208.00
2018-12-19T11:58:47.865Z,188.00
2018-12-19T11:59:48.653Z,224.00
2018-12-19T12:00:49.297Z,220.00
2018-12-19T12:01:49.986Z,208.00
2018-12-19T12:02:50.629Z,200.00
2018-12-19T12:03:51.347Z,168.00
2018-12-19T12:04:52.151Z,204.00
2018-12-19T12:05:52.807Z,160.00
2018-12-19T12:06:53.511Z,152.00
2018-12-19T12:07:54.586Z,136.00
2018-12-19T12:08:55.252Z,176.00
2018-12-19T12:09:55.930Z,164.00
2018-12-19T12:10:56.574Z,164.00
2018-12-19T12:11:57.253Z,136.00
2018-12-19T12:12:58.009Z,108.00
2018-12-19T12:13:58.590Z,116.00
2018-12-19T12:15:00.325Z,92.00
2018-12-19T12:16:00.965Z,136.00
2018-12-19T12:17:01.648Z,128.00
2018-12-19T12:18:02.297Z,132.00
2018-12-19T12:19:02.993Z,128.00
2018-12-19T12:20:03.654Z,104.00
2018-12-19T12:21:04.347Z,84.00
2018-12-19T12:22:05.023Z,100.00
2018-12-19T12:23:05.708Z,100.00
2018-12-19T12:24:06.377Z,120.00
2018-12-19T12:25:07.050Z,128.00
2018-12-19T12:26:07.686Z,132.00
2018-12-19T12:27:08.378Z,152.00
2018-12-19T12:28:09.050Z,132.00
2018-12-19T12:29:09.800Z,136.00
2018-12-19T12:30:10.463Z,136.00
2018-12-19T12:31:11.238Z,84.00
2018-12-19T12:32:12.213Z,72.00
2018-12-19T12:33:12.877Z,80.00
2018-12-19T12:34:13.561Z,112.00
2018-12-19T12:35:14.238Z,100.00
2018-12-19T12:36:14.903Z,80.00
2018-12-19T12:37:15.563Z,76.00
2018-12-19T12:38:16.227Z,84.00
2018-12-19T12:39:17.012Z,80.00
2018-12-19T12:40:17.678Z,80.00
2018-12-19T12:41:18.381Z,80.00
2018-12-19T12:42:19.040Z,112.00
2018-12-19T12:43:20.746Z,100.00
2018-12-19T12:44:21.409Z,92.00
2018-12-19T12:45:22.040Z,84.00
2018-12-19T12:46:22.694Z,84.00
2018-12-19T12:47:23.372Z,92.00
2018-12-19T12:48:24.052Z,96.00
2018-12-19T12:49:24.789Z,96.00
2018-12-19T12:50:25.429Z,100.00
2018-12-19T12:51:26.101Z,80.00
2018-12-19T12:52:26.767Z,84.00
2018-12-19T12:53:27.940Z,96.00
2018-12-19T12:54:28.545Z,88.00
2018-12-19T12:55:29.320Z,88.00
2018-12-19T12:56:30.058Z,88.00
2018-12-19T12:57:31.932Z,92.00
2018-12-19T12:58:32.587Z,80.00
2018-12-19T12:59:33.246Z,64.00
2018-12-19T13:00:33.912Z,56.00
2018-12-19T13:01:34.579Z,44.00
2018-12-19T13:02:35.253Z,56.00
2018-12-19T13:03:35.933Z,56.00
2018-12-19T13:04:36.642Z,64.00
2018-12-19T13:05:37.327Z,64.00
2018-12-19T13:06:38.061Z,72.00
2018-12-19T13:07:38.709Z,64.00
2018-12-19T13:08:41.458Z,80.00
2018-12-19T13:09:42.157Z,80.00
2018-12-19T13:12:22.235Z,92.00
2018-12-19T13:18:08.972Z,92.00
2018-12-19T13:19:09.652Z,92.00
2018-12-19T13:22:14.669Z,84.00
2018-12-19T13:23:15.255Z,92.00
2018-12-19T13:24:15.943Z,108.00
2018-12-19T13:25:16.563Z,140.00
2018-12-19T13:26:18.589Z,140.00
2018-12-19T13:27:19.419Z,132.00